sensor_id;sensor_type;location;lat;lon;timestamp;P1;durP1;ratioP1;P2;durP2;ratioP2
56893;SDS011;43392;50.078;13.704;2023-04-30T00:01:58;25.30;;;19.05;;
56893;SDS011;43392;50.078;13.704;2023-04-30T00:04:25;25.00;;;18.83;;
56893;SDS011;43392;50.078;13.704;2023-04-30T00:06:51;27.13;;;18.27;;
56893;SDS011;43392;50.078;13.704;2023-04-30T00:09:19;24.73;;;17.55;;
56893;SDS011;43392;50.078;13.704;2023-04-30T00:11:46;27.20;;;18.33;;
56893;SDS011;43392;50.078;13.704;2023-04-30T00:14:12;25.50;;;19.65;;
56893;SDS011;43392;50.078;13.704;2023-04-30T00:16:39;30.40;;;22.00;;
56893;SDS011;43392;50.078;13.704;2023-04-30T00:19:05;28.08;;;20.88;;
56893;SDS011;43392;50.078;13.704;2023-04-30T00:21:32;31.67;;;21.02;;
56893;SDS011;43392;50.078;13.704;2023-04-30T00:23:59;27.70;;;20.08;;
56893;SDS011;43392;50.078;13.704;2023-04-30T00:26:27;24.33;;;19.45;;
56893;SDS011;43392;50.078;13.704;2023-04-30T00:28:53;29.00;;;20.80;;
56893;SDS011;43392;50.078;13.704;2023-04-30T00:31:20;25.42;;;19.98;;
56893;SDS011;43392;50.078;13.704;2023-04-30T00:33:47;26.10;;;19.10;;
56893;SDS011;43392;50.078;13.704;2023-04-30T00:36:13;25.40;;;20.10;;
56893;SDS011;43392;50.078;13.704;2023-04-30T00:38:40;28.58;;;21.17;;
56893;SDS011;43392;50.078;13.704;2023-04-30T00:41:06;25.77;;;20.17;;
56893;SDS011;43392;50.078;13.704;2023-04-30T00:43:34;26.08;;;20.15;;
56893;SDS011;43392;50.078;13.704;2023-04-30T00:46:01;26.58;;;20.27;;
56893;SDS011;43392;50.078;13.704;2023-04-30T00:48:30;28.00;;;21.15;;
56893;SDS011;43392;50.078;13.704;2023-04-30T00:50:57;27.60;;;20.55;;
56893;SDS011;43392;50.078;13.704;2023-04-30T00:53:24;27.20;;;20.60;;
56893;SDS011;43392;50.078;13.704;2023-04-30T00:55:51;27.50;;;21.30;;
56893;SDS011;43392;50.078;13.704;2023-04-30T00:58:19;29.02;;;21.42;;
56893;SDS011;43392;50.078;13.704;2023-04-30T01:00:47;30.55;;;21.60;;
56893;SDS011;43392;50.078;13.704;2023-04-30T01:03:14;30.50;;;22.15;;
56893;SDS011;43392;50.078;13.704;2023-04-30T01:05:41;27.67;;;21.63;;
56893;SDS011;43392;50.078;13.704;2023-04-30T01:08:08;29.02;;;22.13;;
56893;SDS011;43392;50.078;13.704;2023-04-30T01:10:39;27.30;;;21.92;;
56893;SDS011;43392;50.078;13.704;2023-04-30T01:13:11;27.23;;;22.00;;
56893;SDS011;43392;50.078;13.704;2023-04-30T01:15:45;27.52;;;21.48;;
56893;SDS011;43392;50.078;13.704;2023-04-30T01:18:21;28.77;;;21.25;;
56893;SDS011;43392;50.078;13.704;2023-04-30T01:20:52;28.02;;;21.35;;
56893;SDS011;43392;50.078;13.704;2023-04-30T01:23:24;29.30;;;22.80;;
56893;SDS011;43392;50.078;13.704;2023-04-30T01:26:06;28.23;;;21.87;;
56893;SDS011;43392;50.078;13.704;2023-04-30T01:28:40;28.15;;;21.50;;
56893;SDS011;43392;50.078;13.704;2023-04-30T01:31:13;33.00;;;22.98;;
56893;SDS011;43392;50.078;13.704;2023-04-30T01:33:40;32.20;;;22.33;;
56893;SDS011;43392;50.078;13.704;2023-04-30T01:36:12;29.65;;;22.83;;
56893;SDS011;43392;50.078;13.704;2023-04-30T01:38:56;28.98;;;22.52;;
56893;SDS011;43392;50.078;13.704;2023-04-30T01:41:33;33.20;;;23.83;;
56893;SDS011;43392;50.078;13.704;2023-04-30T01:44:14;31.73;;;23.63;;
56893;SDS011;43392;50.078;13.704;2023-04-30T01:46:52;27.77;;;21.65;;
56893;SDS011;43392;50.078;13.704;2023-04-30T01:49:24;32.00;;;21.63;;
56893;SDS011;43392;50.078;13.704;2023-04-30T01:51:57;30.92;;;22.70;;
56893;SDS011;43392;50.078;13.704;2023-04-30T01:54:35;31.25;;;22.85;;
56893;SDS011;43392;50.078;13.704;2023-04-30T01:57:07;30.13;;;22.63;;
56893;SDS011;43392;50.078;13.704;2023-04-30T01:59:43;29.08;;;21.73;;
56893;SDS011;43392;50.078;13.704;2023-04-30T02:02:11;32.30;;;22.52;;
56893;SDS011;43392;50.078;13.704;2023-04-30T02:04:38;30.73;;;23.05;;
56893;SDS011;43392;50.078;13.704;2023-04-30T02:07:05;29.67;;;23.02;;
56893;SDS011;43392;50.078;13.704;2023-04-30T02:09:31;32.70;;;22.90;;
56893;SDS011;43392;50.078;13.704;2023-04-30T02:11:58;29.75;;;22.75;;
56893;SDS011;43392;50.078;13.704;2023-04-30T02:14:24;32.80;;;22.23;;
56893;SDS011;43392;50.078;13.704;2023-04-30T02:16:52;32.20;;;23.05;;
56893;SDS011;43392;50.078;13.704;2023-04-30T02:19:19;30.73;;;23.05;;
56893;SDS011;43392;50.078;13.704;2023-04-30T02:21:45;31.48;;;23.40;;
56893;SDS011;43392;50.078;13.704;2023-04-30T02:24:12;30.35;;;22.13;;
56893;SDS011;43392;50.078;13.704;2023-04-30T02:26:38;30.75;;;22.15;;
56893;SDS011;43392;50.078;13.704;2023-04-30T02:29:05;29.20;;;22.50;;
56893;SDS011;43392;50.078;13.704;2023-04-30T02:31:32;30.85;;;21.45;;
56893;SDS011;43392;50.078;13.704;2023-04-30T02:33:59;32.22;;;22.10;;
56893;SDS011;43392;50.078;13.704;2023-04-30T02:36:26;31.90;;;22.83;;
56893;SDS011;43392;50.078;13.704;2023-04-30T02:38:53;32.25;;;22.80;;
56893;SDS011;43392;50.078;13.704;2023-04-30T02:41:19;30.42;;;23.02;;
56893;SDS011;43392;50.078;13.704;2023-04-30T02:43:46;33.60;;;23.27;;
56893;SDS011;43392;50.078;13.704;2023-04-30T02:46:13;30.42;;;23.35;;
56893;SDS011;43392;50.078;13.704;2023-04-30T02:48:39;32.30;;;23.38;;
56893;SDS011;43392;50.078;13.704;2023-04-30T02:51:07;27.63;;;21.77;;
56893;SDS011;43392;50.078;13.704;2023-04-30T02:53:34;36.75;;;22.70;;
56893;SDS011;43392;50.078;13.704;2023-04-30T02:56:00;30.40;;;23.08;;
56893;SDS011;43392;50.078;13.704;2023-04-30T02:58:27;31.17;;;22.35;;
56893;SDS011;43392;50.078;13.704;2023-04-30T03:00:54;32.35;;;23.60;;
56893;SDS011;43392;50.078;13.704;2023-04-30T03:03:20;32.28;;;22.52;;
56893;SDS011;43392;50.078;13.704;2023-04-30T03:05:47;32.58;;;23.73;;
56893;SDS011;43392;50.078;13.704;2023-04-30T03:08:15;30.42;;;23.45;;
56893;SDS011;43392;50.078;13.704;2023-04-30T03:10:41;31.75;;;23.00;;
56893;SDS011;43392;50.078;13.704;2023-04-30T03:13:08;31.50;;;24.75;;
56893;SDS011;43392;50.078;13.704;2023-04-30T03:15:34;31.00;;;22.25;;
56893;SDS011;43392;50.078;13.704;2023-04-30T03:18:01;32.92;;;24.48;;
56893;SDS011;43392;50.078;13.704;2023-04-30T03:20:28;31.70;;;23.88;;
56893;SDS011;43392;50.078;13.704;2023-04-30T03:22:54;34.28;;;25.05;;
56893;SDS011;43392;50.078;13.704;2023-04-30T03:25:22;34.65;;;24.80;;
56893;SDS011;43392;50.078;13.704;2023-04-30T03:27:49;31.90;;;24.30;;
56893;SDS011;43392;50.078;13.704;2023-04-30T03:30:16;37.00;;;26.55;;
56893;SDS011;43392;50.078;13.704;2023-04-30T03:32:43;34.47;;;26.05;;
56893;SDS011;43392;50.078;13.704;2023-04-30T03:35:09;36.78;;;26.50;;
56893;SDS011;43392;50.078;13.704;2023-04-30T03:37:36;36.28;;;27.63;;
56893;SDS011;43392;50.078;13.704;2023-04-30T03:40:03;39.60;;;29.08;;
56893;SDS011;43392;50.078;13.704;2023-04-30T03:42:32;41.97;;;31.55;;
56893;SDS011;43392;50.078;13.704;2023-04-30T03:44:58;42.53;;;31.48;;
56893;SDS011;43392;50.078;13.704;2023-04-30T03:47:25;47.17;;;33.33;;
56893;SDS011;43392;50.078;13.704;2023-04-30T03:49:51;43.63;;;32.03;;
56893;SDS011;43392;50.078;13.704;2023-04-30T03:52:19;37.40;;;28.65;;
56893;SDS011;43392;50.078;13.704;2023-04-30T03:54:46;43.42;;;29.15;;
56893;SDS011;43392;50.078;13.704;2023-04-30T03:57:12;42.50;;;29.17;;
56893;SDS011;43392;50.078;13.704;2023-04-30T03:59:40;43.78;;;32.05;;
56893;SDS011;43392;50.078;13.704;2023-04-30T04:02:07;45.17;;;30.88;;
56893;SDS011;43392;50.078;13.704;2023-04-30T04:04:34;38.13;;;29.42;;
56893;SDS011;43392;50.078;13.704;2023-04-30T04:07:00;41.80;;;29.75;;
56893;SDS011;43392;50.078;13.704;2023-04-30T04:09:27;34.92;;;27.13;;
56893;SDS011;43392;50.078;13.704;2023-04-30T04:11:54;35.60;;;25.40;;
56893;SDS011;43392;50.078;13.704;2023-04-30T04:14:21;35.80;;;25.73;;
56893;SDS011;43392;50.078;13.704;2023-04-30T04:16:49;38.17;;;26.27;;
56893;SDS011;43392;50.078;13.704;2023-04-30T04:19:16;24.67;;;18.38;;
56893;SDS011;43392;50.078;13.704;2023-04-30T04:21:42;26.38;;;20.17;;
56893;SDS011;43392;50.078;13.704;2023-04-30T04:24:09;24.95;;;19.17;;
56893;SDS011;43392;50.078;13.704;2023-04-30T04:26:36;17.65;;;13.90;;
56893;SDS011;43392;50.078;13.704;2023-04-30T04:29:03;28.63;;;21.60;;
56893;SDS011;43392;50.078;13.704;2023-04-30T04:31:29;26.90;;;19.45;;
56893;SDS011;43392;50.078;13.704;2023-04-30T04:33:58;26.25;;;17.63;;
56893;SDS011;43392;50.078;13.704;2023-04-30T04:36:26;22.52;;;14.93;;
56893;SDS011;43392;50.078;13.704;2023-04-30T04:38:54;18.55;;;13.95;;
56893;SDS011;43392;50.078;13.704;2023-04-30T04:41:25;23.77;;;16.65;;
56893;SDS011;43392;50.078;13.704;2023-04-30T04:43:52;23.17;;;16.80;;
56893;SDS011;43392;50.078;13.704;2023-04-30T04:46:20;22.60;;;16.63;;
56893;SDS011;43392;50.078;13.704;2023-04-30T04:48:47;20.85;;;15.95;;
56893;SDS011;43392;50.078;13.704;2023-04-30T04:51:15;17.58;;;13.30;;
56893;SDS011;43392;50.078;13.704;2023-04-30T04:53:41;20.58;;;14.57;;
56893;SDS011;43392;50.078;13.704;2023-04-30T04:56:08;20.80;;;16.27;;
56893;SDS011;43392;50.078;13.704;2023-04-30T04:58:35;20.83;;;15.32;;
56893;SDS011;43392;50.078;13.704;2023-04-30T05:01:01;19.08;;;14.07;;
56893;SDS011;43392;50.078;13.704;2023-04-30T05:03:30;16.80;;;13.50;;
56893;SDS011;43392;50.078;13.704;2023-04-30T05:05:56;18.17;;;13.45;;
56893;SDS011;43392;50.078;13.704;2023-04-30T05:08:24;21.77;;;15.95;;
56893;SDS011;43392;50.078;13.704;2023-04-30T05:10:51;20.27;;;13.80;;
56893;SDS011;43392;50.078;13.704;2023-04-30T05:13:18;19.58;;;15.13;;
56893;SDS011;43392;50.078;13.704;2023-04-30T05:15:44;18.35;;;14.75;;
56893;SDS011;43392;50.078;13.704;2023-04-30T05:18:11;24.13;;;12.95;;
56893;SDS011;43392;50.078;13.704;2023-04-30T05:20:37;19.40;;;12.38;;
56893;SDS011;43392;50.078;13.704;2023-04-30T05:23:04;16.45;;;10.80;;
56893;SDS011;43392;50.078;13.704;2023-04-30T05:25:32;17.73;;;11.55;;
56893;SDS011;43392;50.078;13.704;2023-04-30T05:27:58;15.93;;;10.70;;
56893;SDS011;43392;50.078;13.704;2023-04-30T05:30:25;17.17;;;11.57;;
56893;SDS011;43392;50.078;13.704;2023-04-30T05:32:52;16.02;;;11.63;;
56893;SDS011;43392;50.078;13.704;2023-04-30T05:35:18;22.25;;;13.18;;
56893;SDS011;43392;50.078;13.704;2023-04-30T05:37:45;18.67;;;12.80;;
56893;SDS011;43392;50.078;13.704;2023-04-30T05:40:12;19.15;;;14.00;;
56893;SDS011;43392;50.078;13.704;2023-04-30T05:42:40;18.92;;;13.52;;
56893;SDS011;43392;50.078;13.704;2023-04-30T05:45:08;16.88;;;12.57;;
56893;SDS011;43392;50.078;13.704;2023-04-30T05:47:36;16.50;;;13.20;;
56893;SDS011;43392;50.078;13.704;2023-04-30T05:50:03;16.23;;;11.88;;
56893;SDS011;43392;50.078;13.704;2023-04-30T05:52:30;18.58;;;12.85;;
56893;SDS011;43392;50.078;13.704;2023-04-30T05:54:56;22.27;;;13.93;;
56893;SDS011;43392;50.078;13.704;2023-04-30T05:57:23;20.08;;;13.80;;
56893;SDS011;43392;50.078;13.704;2023-04-30T05:59:51;21.80;;;11.95;;
56893;SDS011;43392;50.078;13.704;2023-04-30T06:02:18;15.68;;;10.52;;
56893;SDS011;43392;50.078;13.704;2023-04-30T06:04:46;16.45;;;9.85;;
56893;SDS011;43392;50.078;13.704;2023-04-30T06:07:12;13.18;;;9.05;;
56893;SDS011;43392;50.078;13.704;2023-04-30T06:09:39;13.43;;;9.10;;
56893;SDS011;43392;50.078;13.704;2023-04-30T06:12:06;16.52;;;8.70;;
56893;SDS011;43392;50.078;13.704;2023-04-30T06:14:32;14.07;;;9.00;;
56893;SDS011;43392;50.078;13.704;2023-04-30T06:17:01;17.42;;;9.30;;
56893;SDS011;43392;50.078;13.704;2023-04-30T06:19:28;14.93;;;8.70;;
56893;SDS011;43392;50.078;13.704;2023-04-30T06:21:55;18.00;;;10.15;;
56893;SDS011;43392;50.078;13.704;2023-04-30T06:24:21;17.15;;;10.98;;
56893;SDS011;43392;50.078;13.704;2023-04-30T06:26:51;15.57;;;9.77;;
56893;SDS011;43392;50.078;13.704;2023-04-30T06:29:18;15.35;;;10.38;;
56893;SDS011;43392;50.078;13.704;2023-04-30T06:31:44;15.70;;;10.40;;
56893;SDS011;43392;50.078;13.704;2023-04-30T06:34:12;13.65;;;8.65;;
56893;SDS011;43392;50.078;13.704;2023-04-30T06:36:39;16.30;;;9.20;;
56893;SDS011;43392;50.078;13.704;2023-04-30T06:39:05;13.73;;;8.80;;
56893;SDS011;43392;50.078;13.704;2023-04-30T06:41:32;14.85;;;9.82;;
56893;SDS011;43392;50.078;13.704;2023-04-30T06:43:59;12.93;;;8.65;;
56893;SDS011;43392;50.078;13.704;2023-04-30T06:46:25;13.70;;;8.63;;
56893;SDS011;43392;50.078;13.704;2023-04-30T06:48:52;18.00;;;8.32;;
56893;SDS011;43392;50.078;13.704;2023-04-30T06:51:20;13.25;;;7.50;;
56893;SDS011;43392;50.078;13.704;2023-04-30T06:53:46;11.93;;;8.48;;
56893;SDS011;43392;50.078;13.704;2023-04-30T06:56:13;12.43;;;8.30;;
56893;SDS011;43392;50.078;13.704;2023-04-30T06:58:40;13.45;;;7.55;;
56893;SDS011;43392;50.078;13.704;2023-04-30T07:01:07;12.40;;;7.70;;
56893;SDS011;43392;50.078;13.704;2023-04-30T07:03:33;11.95;;;7.10;;
56893;SDS011;43392;50.078;13.704;2023-04-30T07:06:00;11.55;;;7.35;;
56893;SDS011;43392;50.078;13.704;2023-04-30T07:08:29;11.18;;;6.90;;
56893;SDS011;43392;50.078;13.704;2023-04-30T07:10:55;11.02;;;7.38;;
56893;SDS011;43392;50.078;13.704;2023-04-30T07:13:22;11.05;;;7.47;;
56893;SDS011;43392;50.078;13.704;2023-04-30T07:15:49;13.43;;;7.32;;
56893;SDS011;43392;50.078;13.704;2023-04-30T07:18:15;14.30;;;8.07;;
56893;SDS011;43392;50.078;13.704;2023-04-30T07:20:42;9.90;;;6.32;;
56893;SDS011;43392;50.078;13.704;2023-04-30T07:23:09;12.10;;;6.95;;
56893;SDS011;43392;50.078;13.704;2023-04-30T07:25:37;9.48;;;5.70;;
56893;SDS011;43392;50.078;13.704;2023-04-30T07:28:04;12.60;;;6.53;;
56893;SDS011;43392;50.078;13.704;2023-04-30T07:30:31;10.18;;;5.70;;
56893;SDS011;43392;50.078;13.704;2023-04-30T07:32:57;11.85;;;6.60;;
56893;SDS011;43392;50.078;13.704;2023-04-30T07:35:24;11.32;;;7.72;;
56893;SDS011;43392;50.078;13.704;2023-04-30T07:37:51;11.30;;;6.85;;
56893;SDS011;43392;50.078;13.704;2023-04-30T07:40:17;11.98;;;6.03;;
56893;SDS011;43392;50.078;13.704;2023-04-30T07:42:45;9.35;;;5.55;;
56893;SDS011;43392;50.078;13.704;2023-04-30T07:45:12;9.68;;;6.47;;
56893;SDS011;43392;50.078;13.704;2023-04-30T07:47:39;8.48;;;5.40;;
56893;SDS011;43392;50.078;13.704;2023-04-30T07:50:06;9.80;;;4.95;;
56893;SDS011;43392;50.078;13.704;2023-04-30T07:52:33;10.23;;;5.15;;
56893;SDS011;43392;50.078;13.704;2023-04-30T07:54:59;7.78;;;4.80;;
56893;SDS011;43392;50.078;13.704;2023-04-30T07:57:26;8.43;;;5.10;;
56893;SDS011;43392;50.078;13.704;2023-04-30T07:59:54;9.10;;;4.88;;
56893;SDS011;43392;50.078;13.704;2023-04-30T08:02:21;7.43;;;4.55;;
56893;SDS011;43392;50.078;13.704;2023-04-30T08:04:48;9.80;;;4.65;;
56893;SDS011;43392;50.078;13.704;2023-04-30T08:07:14;8.52;;;5.00;;
56893;SDS011;43392;50.078;13.704;2023-04-30T08:09:41;9.65;;;5.32;;
56893;SDS011;43392;50.078;13.704;2023-04-30T08:12:07;10.32;;;5.05;;
56893;SDS011;43392;50.078;13.704;2023-04-30T08:14:34;7.72;;;4.70;;
56893;SDS011;43392;50.078;13.704;2023-04-30T08:17:02;8.43;;;4.93;;
56893;SDS011;43392;50.078;13.704;2023-04-30T08:19:29;9.10;;;5.13;;
56893;SDS011;43392;50.078;13.704;2023-04-30T08:21:56;9.90;;;4.95;;
56893;SDS011;43392;50.078;13.704;2023-04-30T08:24:23;8.65;;;4.90;;
56893;SDS011;43392;50.078;13.704;2023-04-30T08:26:50;11.48;;;5.88;;
56893;SDS011;43392;50.078;13.704;2023-04-30T08:29:17;8.32;;;5.18;;
56893;SDS011;43392;50.078;13.704;2023-04-30T08:31:43;7.95;;;5.15;;
56893;SDS011;43392;50.078;13.704;2023-04-30T08:34:11;7.00;;;4.55;;
56893;SDS011;43392;50.078;13.704;2023-04-30T08:36:38;7.65;;;4.40;;
56893;SDS011;43392;50.078;13.704;2023-04-30T08:39:04;7.30;;;4.63;;
56893;SDS011;43392;50.078;13.704;2023-04-30T08:41:31;7.70;;;4.40;;
56893;SDS011;43392;50.078;13.704;2023-04-30T08:44:00;7.07;;;4.22;;
56893;SDS011;43392;50.078;13.704;2023-04-30T08:46:28;9.95;;;4.35;;
56893;SDS011;43392;50.078;13.704;2023-04-30T08:48:57;5.88;;;3.05;;
56893;SDS011;43392;50.078;13.704;2023-04-30T08:51:25;7.50;;;3.67;;
56893;SDS011;43392;50.078;13.704;2023-04-30T08:53:53;7.05;;;3.75;;
56893;SDS011;43392;50.078;13.704;2023-04-30T08:56:21;8.07;;;3.55;;
56893;SDS011;43392;50.078;13.704;2023-04-30T08:58:49;8.27;;;3.38;;
56893;SDS011;43392;50.078;13.704;2023-04-30T09:01:15;7.25;;;3.35;;
56893;SDS011;43392;50.078;13.704;2023-04-30T09:03:42;8.02;;;3.53;;
56893;SDS011;43392;50.078;13.704;2023-04-30T09:06:09;5.80;;;3.20;;
56893;SDS011;43392;50.078;13.704;2023-04-30T09:08:42;8.90;;;3.78;;
56893;SDS011;43392;50.078;13.704;2023-04-30T09:11:23;5.93;;;3.30;;
56893;SDS011;43392;50.078;13.704;2023-04-30T09:16:18;7.35;;;2.72;;
56893;SDS011;43392;50.078;13.704;2023-04-30T09:18:48;6.18;;;3.28;;
56893;SDS011;43392;50.078;13.704;2023-04-30T09:21:15;6.20;;;3.33;;
56893;SDS011;43392;50.078;13.704;2023-04-30T09:26:31;5.05;;;2.80;;
56893;SDS011;43392;50.078;13.704;2023-04-30T09:28:59;7.00;;;3.65;;
56893;SDS011;43392;50.078;13.704;2023-04-30T09:31:31;6.97;;;3.55;;
56893;SDS011;43392;50.078;13.704;2023-04-30T09:33:58;8.10;;;3.40;;
56893;SDS011;43392;50.078;13.704;2023-04-30T09:36:25;6.57;;;3.50;;
56893;SDS011;43392;50.078;13.704;2023-04-30T09:38:52;8.38;;;3.42;;
56893;SDS011;43392;50.078;13.704;2023-04-30T09:41:22;8.18;;;4.25;;
56893;SDS011;43392;50.078;13.704;2023-04-30T09:43:51;8.43;;;4.32;;
56893;SDS011;43392;50.078;13.704;2023-04-30T09:46:18;6.20;;;3.58;;
56893;SDS011;43392;50.078;13.704;2023-04-30T09:48:48;9.70;;;5.20;;
56893;SDS011;43392;50.078;13.704;2023-04-30T09:51:21;11.13;;;5.30;;
56893;SDS011;43392;50.078;13.704;2023-04-30T09:53:48;11.40;;;5.22;;
56893;SDS011;43392;50.078;13.704;2023-04-30T09:56:17;11.23;;;4.80;;
56893;SDS011;43392;50.078;13.704;2023-04-30T09:58:48;11.00;;;5.18;;
56893;SDS011;43392;50.078;13.704;2023-04-30T10:01:16;8.65;;;4.15;;
56893;SDS011;43392;50.078;13.704;2023-04-30T10:03:43;9.55;;;4.47;;
56893;SDS011;43392;50.078;13.704;2023-04-30T10:06:12;7.57;;;3.67;;
56893;SDS011;43392;50.078;13.704;2023-04-30T10:08:41;9.27;;;4.15;;
56893;SDS011;43392;50.078;13.704;2023-04-30T10:11:12;7.72;;;3.58;;
56893;SDS011;43392;50.078;13.704;2023-04-30T10:13:44;7.90;;;3.50;;
56893;SDS011;43392;50.078;13.704;2023-04-30T10:16:18;6.75;;;3.38;;
56893;SDS011;43392;50.078;13.704;2023-04-30T10:18:52;7.65;;;2.88;;
56893;SDS011;43392;50.078;13.704;2023-04-30T10:21:21;8.48;;;2.97;;
56893;SDS011;43392;50.078;13.704;2023-04-30T10:23:51;10.80;;;3.58;;
56893;SDS011;43392;50.078;13.704;2023-04-30T10:26:19;8.00;;;3.60;;
56893;SDS011;43392;50.078;13.704;2023-04-30T10:28:47;15.63;;;4.10;;
56893;SDS011;43392;50.078;13.704;2023-04-30T10:31:15;10.70;;;3.75;;
56893;SDS011;43392;50.078;13.704;2023-04-30T10:33:44;13.57;;;4.07;;
56893;SDS011;43392;50.078;13.704;2023-04-30T10:36:25;8.27;;;3.90;;
56893;SDS011;43392;50.078;13.704;2023-04-30T10:38:56;8.93;;;3.88;;
56893;SDS011;43392;50.078;13.704;2023-04-30T10:41:25;10.10;;;3.90;;
56893;SDS011;43392;50.078;13.704;2023-04-30T10:43:55;10.65;;;4.35;;
56893;SDS011;43392;50.078;13.704;2023-04-30T10:46:23;8.85;;;3.38;;
56893;SDS011;43392;50.078;13.704;2023-04-30T10:48:51;7.88;;;3.78;;
56893;SDS011;43392;50.078;13.704;2023-04-30T10:51:19;10.43;;;4.07;;
56893;SDS011;43392;50.078;13.704;2023-04-30T10:53:46;9.05;;;3.90;;
56893;SDS011;43392;50.078;13.704;2023-04-30T10:56:27;9.32;;;4.47;;
56893;SDS011;43392;50.078;13.704;2023-04-30T10:58:58;8.48;;;4.72;;
56893;SDS011;43392;50.078;13.704;2023-04-30T11:01:26;8.68;;;5.13;;
56893;SDS011;43392;50.078;13.704;2023-04-30T11:04:03;8.52;;;4.22;;
56893;SDS011;43392;50.078;13.704;2023-04-30T11:09:23;9.43;;;4.78;;
56893;SDS011;43392;50.078;13.704;2023-04-30T11:12:01;8.27;;;4.68;;
56893;SDS011;43392;50.078;13.704;2023-04-30T11:14:31;8.43;;;4.68;;
56893;SDS011;43392;50.078;13.704;2023-04-30T11:16:58;6.72;;;4.15;;
56893;SDS011;43392;50.078;13.704;2023-04-30T11:19:26;9.10;;;4.57;;
56893;SDS011;43392;50.078;13.704;2023-04-30T11:24:49;9.05;;;4.60;;
56893;SDS011;43392;50.078;13.704;2023-04-30T11:27:18;7.97;;;4.40;;
56893;SDS011;43392;50.078;13.704;2023-04-30T11:29:47;7.35;;;4.45;;
56893;SDS011;43392;50.078;13.704;2023-04-30T11:32:15;8.00;;;3.95;;
56893;SDS011;43392;50.078;13.704;2023-04-30T11:34:42;8.30;;;4.45;;
56893;SDS011;43392;50.078;13.704;2023-04-30T11:37:10;9.73;;;4.28;;
56893;SDS011;43392;50.078;13.704;2023-04-30T11:39:38;7.18;;;3.85;;
56893;SDS011;43392;50.078;13.704;2023-04-30T11:42:05;8.35;;;4.18;;
56893;SDS011;43392;50.078;13.704;2023-04-30T11:44:32;8.13;;;4.38;;
56893;SDS011;43392;50.078;13.704;2023-04-30T11:47:00;9.20;;;4.88;;
56893;SDS011;43392;50.078;13.704;2023-04-30T11:49:27;8.10;;;3.90;;
56893;SDS011;43392;50.078;13.704;2023-04-30T11:51:54;8.82;;;4.25;;
56893;SDS011;43392;50.078;13.704;2023-04-30T11:54:20;8.00;;;3.50;;
56893;SDS011;43392;50.078;13.704;2023-04-30T11:56:47;6.32;;;3.97;;
56893;SDS011;43392;50.078;13.704;2023-04-30T11:59:14;9.48;;;4.18;;
56893;SDS011;43392;50.078;13.704;2023-04-30T12:01:42;7.72;;;3.63;;
56893;SDS011;43392;50.078;13.704;2023-04-30T12:04:10;6.32;;;3.72;;
56893;SDS011;43392;50.078;13.704;2023-04-30T12:06:37;7.53;;;3.88;;
56893;SDS011;43392;50.078;13.704;2023-04-30T12:09:03;6.38;;;3.65;;
56893;SDS011;43392;50.078;13.704;2023-04-30T12:11:32;6.82;;;3.80;;
56893;SDS011;43392;50.078;13.704;2023-04-30T12:14:00;7.22;;;3.47;;
56893;SDS011;43392;50.078;13.704;2023-04-30T12:16:37;9.07;;;3.95;;
56893;SDS011;43392;50.078;13.704;2023-04-30T12:19:05;7.70;;;3.45;;
56893;SDS011;43392;50.078;13.704;2023-04-30T12:21:33;6.38;;;3.28;;
56893;SDS011;43392;50.078;13.704;2023-04-30T12:24:00;5.70;;;2.80;;
56893;SDS011;43392;50.078;13.704;2023-04-30T12:26:33;5.53;;;2.85;;
56893;SDS011;43392;50.078;13.704;2023-04-30T12:29:02;6.25;;;3.03;;
56893;SDS011;43392;50.078;13.704;2023-04-30T12:31:30;7.95;;;3.65;;
56893;SDS011;43392;50.078;13.704;2023-04-30T12:33:57;5.47;;;2.85;;
56893;SDS011;43392;50.078;13.704;2023-04-30T12:36:29;6.57;;;3.60;;
56893;SDS011;43392;50.078;13.704;2023-04-30T12:39:02;8.75;;;3.85;;
56893;SDS011;43392;50.078;13.704;2023-04-30T12:41:34;8.27;;;3.95;;
56893;SDS011;43392;50.078;13.704;2023-04-30T12:44:17;6.57;;;3.20;;
56893;SDS011;43392;50.078;13.704;2023-04-30T12:46:46;10.27;;;3.75;;
56893;SDS011;43392;50.078;13.704;2023-04-30T12:49:21;5.60;;;3.33;;
56893;SDS011;43392;50.078;13.704;2023-04-30T12:51:49;6.30;;;3.20;;
56893;SDS011;43392;50.078;13.704;2023-04-30T12:54:24;6.93;;;3.28;;
56893;SDS011;43392;50.078;13.704;2023-04-30T12:56:58;5.72;;;3.10;;
56893;SDS011;43392;50.078;13.704;2023-04-30T12:59:26;5.78;;;3.08;;
56893;SDS011;43392;50.078;13.704;2023-04-30T13:01:53;7.03;;;3.65;;
56893;SDS011;43392;50.078;13.704;2023-04-30T13:04:20;8.23;;;3.17;;
56893;SDS011;43392;50.078;13.704;2023-04-30T13:06:47;5.32;;;2.85;;
56893;SDS011;43392;50.078;13.704;2023-04-30T13:09:14;5.43;;;2.95;;
56893;SDS011;43392;50.078;13.704;2023-04-30T13:11:42;6.97;;;2.72;;
56893;SDS011;43392;50.078;13.704;2023-04-30T13:14:09;5.78;;;3.00;;
56893;SDS011;43392;50.078;13.704;2023-04-30T13:16:37;6.25;;;3.15;;
56893;SDS011;43392;50.078;13.704;2023-04-30T13:19:04;6.20;;;2.80;;
56893;SDS011;43392;50.078;13.704;2023-04-30T13:21:31;5.93;;;2.80;;
56893;SDS011;43392;50.078;13.704;2023-04-30T13:23:57;4.75;;;2.60;;
56893;SDS011;43392;50.078;13.704;2023-04-30T13:26:24;5.22;;;2.63;;
56893;SDS011;43392;50.078;13.704;2023-04-30T13:28:53;7.00;;;3.00;;
56893;SDS011;43392;50.078;13.704;2023-04-30T13:31:19;4.40;;;2.45;;
56893;SDS011;43392;50.078;13.704;2023-04-30T13:33:46;5.63;;;2.70;;
56893;SDS011;43392;50.078;13.704;2023-04-30T13:36:13;6.43;;;2.58;;
56893;SDS011;43392;50.078;13.704;2023-04-30T13:38:39;6.65;;;2.55;;
56893;SDS011;43392;50.078;13.704;2023-04-30T13:41:06;6.88;;;2.58;;
56893;SDS011;43392;50.078;13.704;2023-04-30T13:43:33;6.18;;;2.50;;
56893;SDS011;43392;50.078;13.704;2023-04-30T13:46:03;5.25;;;2.42;;
56893;SDS011;43392;50.078;13.704;2023-04-30T13:48:30;5.95;;;2.40;;
56893;SDS011;43392;50.078;13.704;2023-04-30T13:50:57;6.88;;;2.47;;
56893;SDS011;43392;50.078;13.704;2023-04-30T13:53:23;5.47;;;2.58;;
56893;SDS011;43392;50.078;13.704;2023-04-30T13:55:50;7.90;;;2.50;;
56893;SDS011;43392;50.078;13.704;2023-04-30T13:58:17;6.13;;;2.65;;
56893;SDS011;43392;50.078;13.704;2023-04-30T14:00:44;5.28;;;2.40;;
56893;SDS011;43392;50.078;13.704;2023-04-30T14:03:12;4.57;;;2.45;;
56893;SDS011;43392;50.078;13.704;2023-04-30T14:05:39;5.22;;;2.28;;
56893;SDS011;43392;50.078;13.704;2023-04-30T14:08:05;5.28;;;2.40;;
56893;SDS011;43392;50.078;13.704;2023-04-30T14:10:32;6.18;;;2.47;;
56893;SDS011;43392;50.078;13.704;2023-04-30T14:12:59;5.00;;;1.90;;
56893;SDS011;43392;50.078;13.704;2023-04-30T14:15:25;5.22;;;2.17;;
56893;SDS011;43392;50.078;13.704;2023-04-30T14:17:54;4.97;;;2.00;;
56893;SDS011;43392;50.078;13.704;2023-04-30T14:20:22;5.78;;;2.30;;
56893;SDS011;43392;50.078;13.704;2023-04-30T14:22:49;8.98;;;2.58;;
56893;SDS011;43392;50.078;13.704;2023-04-30T14:25:15;8.30;;;2.58;;
56893;SDS011;43392;50.078;13.704;2023-04-30T14:27:42;8.23;;;2.47;;
56893;SDS011;43392;50.078;13.704;2023-04-30T14:30:09;4.18;;;2.08;;
56893;SDS011;43392;50.078;13.704;2023-04-30T14:32:36;5.72;;;2.17;;
56893;SDS011;43392;50.078;13.704;2023-04-30T14:35:03;6.95;;;2.30;;
56893;SDS011;43392;50.078;13.704;2023-04-30T14:37:32;4.72;;;2.20;;